Black Forest, Colorado
Current Conditions -  °F | °C
As of 1:58 PM on Saturday 25 Oct 2014 (Local Time) from KAFF Reporting Station
Clear Clear  
Wind Chill: 75°   Ceiling: Unl
Heat Index: 75°   Visibility: 10mi
Dew Point: 14°   Wind: 3mph
Humidity: 10%   Direction: NA
Pressure: 30.22"   Gusts: NA
Location:  39.0424°N, 104.69°W
Report Text: KAFF 251958Z AUTO VRB03KT 10SM CLR 24/M10 A3022 RMK AO2 SLP169 T02391101
Loading
Personal Weather Stations






























Interactive Weather Map
Tropical Storm Tracking
New forecast layout! Learn more

10-Day Weather Forecast

Advertisements
Track Severe Weather on mobile